createdAt,value
2018-07-21T00:00:01.675Z,44.00
2018-07-21T00:01:01.686Z,48.00
2018-07-21T00:02:01.661Z,44.00
2018-07-21T00:03:01.314Z,40.00
2018-07-21T00:04:01.671Z,44.00
2018-07-21T00:05:01.312Z,52.00
2018-07-21T00:06:01.282Z,72.00
2018-07-21T00:07:01.644Z,108.00
2018-07-21T00:08:01.624Z,204.00
2018-07-21T00:09:01.262Z,288.00
2018-07-21T00:10:01.270Z,628.00
2018-07-21T00:11:01.604Z,176.00
2018-07-21T00:12:01.609Z,60.00
2018-07-21T00:13:01.588Z,40.00
2018-07-21T00:14:01.594Z,32.00
2018-07-21T00:15:01.227Z,28.00
2018-07-21T00:16:01.580Z,32.00
2018-07-21T00:17:01.557Z,40.00
2018-07-21T00:18:01.568Z,44.00
2018-07-21T00:19:01.193Z,48.00
2018-07-21T00:20:01.180Z,44.00
2018-07-21T00:21:01.547Z,44.00
2018-07-21T00:22:01.180Z,36.00
2018-07-21T00:23:01.200Z,32.00
2018-07-21T00:24:01.505Z,24.00
2018-07-21T00:25:01.515Z,20.00
2018-07-21T00:26:01.156Z,16.00
2018-07-21T00:27:01.508Z,16.00
2018-07-21T00:28:01.498Z,16.00
2018-07-21T00:29:01.475Z,20.00
2018-07-21T00:30:01.135Z,16.00
2018-07-21T00:31:01.118Z,16.00
2018-07-21T00:32:01.456Z,20.00
2018-07-21T00:33:01.456Z,16.00
2018-07-21T00:34:01.441Z,20.00
2018-07-21T00:35:01.459Z,24.00
2018-07-21T00:36:01.443Z,28.00
2018-07-21T00:37:01.081Z,28.00
2018-07-21T00:38:01.422Z,32.00
2018-07-21T00:39:01.412Z,32.00
2018-07-21T00:40:01.405Z,36.00
2018-07-21T00:41:01.410Z,40.00
2018-07-21T00:42:01.042Z,44.00
2018-07-21T00:43:01.378Z,44.00
2018-07-21T00:44:01.017Z,40.00
2018-07-21T00:45:01.010Z,32.00
2018-07-21T00:46:01.028Z,24.00
2018-07-21T00:47:01.020Z,20.00
2018-07-21T00:48:01.011Z,16.00
2018-07-21T00:49:01.336Z,16.00
2018-07-21T00:50:00.989Z,16.00
2018-07-21T00:51:00.989Z,24.00
2018-07-21T00:52:00.961Z,32.00
2018-07-21T00:53:00.975Z,44.00
2018-07-21T00:54:00.949Z,60.00
2018-07-21T00:55:00.941Z,88.00
2018-07-21T00:56:01.310Z,336.00
2018-07-21T00:57:01.285Z,116.00
2018-07-21T00:58:01.282Z,104.00
2018-07-21T00:59:00.920Z,92.00
2018-07-21T01:00:01.280Z,100.00
2018-07-21T01:01:01.280Z,104.00
2018-07-21T01:02:00.910Z,112.00
2018-07-21T01:03:01.243Z,104.00
2018-07-21T01:04:00.896Z,80.00
2018-07-21T01:05:00.888Z,64.00
2018-07-21T01:06:00.879Z,52.00
2018-07-21T01:07:01.219Z,44.00
2018-07-21T01:08:00.894Z,40.00
2018-07-21T01:09:00.853Z,36.00
2018-07-21T01:10:01.222Z,28.00
2018-07-21T01:11:01.228Z,28.00
2018-07-21T01:12:00.836Z,28.00
2018-07-21T01:13:01.179Z,28.00
2018-07-21T01:14:01.168Z,32.00
2018-07-21T01:15:00.826Z,36.00
2018-07-21T01:16:00.824Z,32.00
2018-07-21T01:17:00.803Z,32.00
2018-07-21T01:18:01.134Z,36.00
2018-07-21T01:19:00.776Z,40.00
2018-07-21T01:20:00.772Z,44.00
2018-07-21T01:21:00.755Z,44.00
2018-07-21T01:22:01.117Z,40.00
2018-07-21T01:23:00.775Z,40.00
2018-07-21T01:24:01.111Z,40.00
2018-07-21T01:25:00.760Z,44.00
2018-07-21T01:26:00.750Z,48.00
2018-07-21T01:27:01.100Z,52.00
2018-07-21T01:28:01.075Z,56.00
2018-07-21T01:29:00.733Z,56.00
2018-07-21T01:30:00.712Z,48.00
2018-07-21T01:31:01.075Z,52.00
2018-07-21T01:32:00.691Z,48.00
2018-07-21T01:33:00.699Z,52.00
2018-07-21T01:34:01.051Z,48.00
2018-07-21T01:35:00.680Z,36.00
2018-07-21T01:36:00.670Z,36.00
2018-07-21T01:37:01.013Z,36.00
2018-07-21T01:38:01.024Z,40.00
2018-07-21T01:39:00.643Z,40.00
2018-07-21T01:40:00.993Z,36.00
2018-07-21T01:41:00.642Z,36.00
2018-07-21T01:42:00.642Z,32.00
2018-07-21T01:43:00.624Z,32.00
2018-07-21T01:44:00.619Z,32.00
2018-07-21T01:45:00.644Z,36.00
2018-07-21T01:46:00.942Z,44.00
2018-07-21T01:47:00.948Z,44.00
2018-07-21T01:48:00.941Z,52.00
2018-07-21T01:49:00.585Z,48.00
2018-07-21T01:50:00.573Z,40.00
2018-07-21T01:51:00.923Z,36.00
2018-07-21T01:52:00.914Z,40.00
2018-07-21T01:53:00.910Z,40.00
2018-07-21T01:54:00.554Z,48.00
2018-07-21T01:55:00.538Z,60.00
2018-07-21T01:56:00.554Z,80.00
2018-07-21T01:57:00.881Z,76.00
2018-07-21T01:58:00.867Z,88.00
2018-07-21T01:59:00.880Z,196.00
2018-07-21T02:00:00.523Z,84.00
2018-07-21T02:01:00.853Z,72.00
2018-07-21T02:02:00.844Z,68.00
2018-07-21T02:03:00.855Z,72.00
2018-07-21T02:04:00.485Z,72.00
2018-07-21T02:05:00.467Z,72.00
2018-07-21T02:06:00.471Z,88.00
2018-07-21T02:07:00.461Z,84.00
2018-07-21T02:08:00.468Z,76.00
2018-07-21T02:09:00.812Z,84.00
2018-07-21T02:10:00.453Z,84.00
2018-07-21T02:11:00.428Z,72.00
2018-07-21T02:12:00.778Z,56.00
2018-07-21T02:13:00.433Z,40.00
2018-07-21T02:14:00.761Z,40.00
2018-07-21T02:15:00.410Z,32.00
2018-07-21T02:16:00.753Z,28.00
2018-07-21T02:17:00.757Z,24.00
2018-07-21T02:18:00.731Z,20.00
2018-07-21T02:19:00.722Z,20.00
2018-07-21T02:20:00.369Z,16.00
2018-07-21T02:21:00.377Z,20.00
2018-07-21T02:22:00.727Z,24.00
2018-07-21T02:23:00.719Z,24.00
2018-07-21T02:24:00.710Z,28.00
2018-07-21T02:25:00.677Z,40.00
2018-07-21T02:26:00.705Z,52.00
2018-07-21T02:27:00.669Z,76.00
2018-07-21T02:28:00.669Z,124.00
2018-07-21T02:29:00.660Z,424.00
2018-07-21T02:30:00.647Z,164.00
2018-07-21T02:31:00.666Z,268.00
2018-07-21T02:32:00.301Z,200.00
2018-07-21T02:33:00.287Z,352.00
2018-07-21T02:34:00.314Z,192.00
2018-07-21T02:35:00.284Z,172.00
2018-07-21T02:36:00.617Z,176.00
2018-07-21T02:37:00.283Z,172.00
2018-07-21T02:38:00.597Z,176.00
2018-07-21T02:39:00.605Z,160.00
2018-07-21T02:40:00.586Z,148.00
2018-07-21T02:41:00.230Z,152.00
2018-07-21T02:42:00.571Z,140.00
2018-07-21T02:43:00.568Z,124.00
2018-07-21T02:44:00.571Z,120.00
2018-07-21T02:45:00.217Z,132.00
2018-07-21T02:46:00.185Z,276.00
2018-07-21T02:47:00.186Z,380.00
2018-07-21T02:48:00.537Z,164.00
2018-07-21T02:49:00.204Z,148.00
2018-07-21T02:50:00.184Z,108.00
2018-07-21T02:51:00.164Z,92.00
2018-07-21T02:52:00.171Z,104.00
2018-07-21T02:53:00.165Z,304.00
2018-07-21T02:54:00.480Z,272.00
2018-07-21T02:55:00.491Z,336.00
2018-07-21T02:56:00.139Z,200.00
2018-07-21T02:57:00.136Z,140.00
2018-07-21T02:58:00.119Z,124.00
2018-07-21T02:59:00.470Z,112.00
2018-07-21T03:00:00.469Z,96.00
2018-07-21T03:01:00.110Z,88.00
2018-07-21T03:02:00.094Z,76.00
2018-07-21T03:03:00.439Z,68.00
2018-07-21T03:04:00.421Z,64.00
2018-07-21T03:05:00.080Z,60.00
2018-07-21T03:06:00.076Z,48.00
2018-07-21T03:07:00.403Z,44.00
2018-07-21T03:08:00.050Z,40.00
2018-07-21T03:09:00.405Z,36.00
2018-07-21T03:10:00.082Z,36.00
2018-07-21T03:11:00.396Z,36.00
2018-07-21T03:12:00.026Z,36.00
2018-07-21T03:13:00.027Z,36.00
2018-07-21T03:14:00.001Z,36.00
2018-07-21T03:15:00.365Z,36.00
2018-07-21T03:16:00.000Z,44.00
2018-07-21T03:17:00.333Z,64.00
2018-07-21T03:18:00.322Z,76.00
2018-07-21T03:19:00.343Z,136.00
2018-07-21T03:19:59.980Z,152.00
2018-07-21T03:20:59.974Z,92.00
2018-07-21T03:22:00.298Z,84.00
2018-07-21T03:22:59.982Z,100.00
2018-07-21T03:23:59.950Z,236.00
2018-07-21T03:25:00.290Z,232.00
2018-07-21T03:26:00.274Z,224.00
2018-07-21T03:26:59.923Z,192.00
2018-07-21T03:28:00.277Z,220.00
2018-07-21T03:28:59.905Z,104.00
2018-07-21T03:29:59.906Z,96.00
2018-07-21T03:31:00.274Z,196.00
2018-07-21T03:31:59.892Z,180.00
2018-07-21T03:33:00.226Z,112.00
2018-07-21T03:33:59.872Z,220.00
2018-07-21T03:34:59.881Z,216.00
2018-07-21T03:36:00.225Z,204.00
2018-07-21T03:37:00.221Z,172.00
2018-07-21T03:37:59.883Z,180.00
2018-07-21T03:38:59.837Z,180.00
2018-07-21T03:39:59.840Z,184.00
2018-07-21T03:40:59.840Z,184.00
2018-07-21T03:42:00.192Z,184.00
2018-07-21T03:42:59.827Z,184.00
2018-07-21T03:44:00.154Z,180.00
2018-07-21T03:45:00.166Z,88.00
2018-07-21T03:46:00.155Z,88.00
2018-07-21T03:46:59.788Z,168.00
2018-07-21T03:47:59.773Z,140.00
2018-07-21T03:48:59.766Z,92.00
2018-07-21T03:50:00.111Z,92.00
2018-07-21T03:51:00.107Z,136.00
2018-07-21T03:52:00.099Z,176.00
2018-07-21T03:53:00.101Z,160.00
2018-07-21T03:53:59.775Z,140.00
2018-07-21T03:55:00.140Z,156.00
2018-07-21T03:56:00.089Z,148.00
2018-07-21T03:57:00.083Z,72.00
2018-07-21T03:58:00.062Z,72.00
2018-07-21T03:58:59.719Z,80.00
2018-07-21T03:59:59.716Z,88.00
2018-07-21T04:01:00.043Z,88.00
2018-07-21T04:02:00.039Z,148.00
2018-07-21T04:03:00.046Z,144.00
2018-07-21T04:04:00.043Z,140.00
2018-07-21T04:05:00.079Z,132.00
2018-07-21T04:05:59.650Z,144.00
2018-07-21T04:06:59.665Z,140.00
2018-07-21T04:07:59.995Z,136.00
2018-07-21T04:08:59.703Z,84.00
2018-07-21T04:09:59.620Z,152.00
2018-07-21T04:10:59.967Z,152.00
2018-07-21T04:11:59.970Z,144.00
2018-07-21T04:12:59.964Z,140.00
2018-07-21T04:13:59.626Z,140.00
2018-07-21T04:14:59.973Z,144.00
2018-07-21T04:15:59.937Z,128.00
2018-07-21T04:16:59.931Z,112.00
2018-07-21T04:17:59.602Z,156.00
2018-07-21T04:19:00.116Z,156.00
2018-07-21T04:19:59.561Z,148.00
2018-07-21T04:20:59.906Z,112.00
2018-07-21T04:21:59.550Z,152.00
2018-07-21T04:22:59.560Z,160.00
2018-07-21T04:23:59.887Z,112.00
2018-07-21T04:24:59.543Z,132.00
2018-07-21T04:25:59.532Z,112.00
2018-07-21T04:26:59.867Z,116.00
2018-07-21T04:27:59.875Z,120.00
2018-07-21T04:28:59.870Z,124.00
2018-07-21T04:29:59.529Z,168.00
2018-07-21T04:30:59.859Z,156.00
2018-07-21T04:31:59.845Z,116.00
2018-07-21T04:32:59.484Z,120.00
2018-07-21T04:33:59.830Z,128.00
2018-07-21T04:34:59.817Z,148.00
2018-07-21T04:35:59.461Z,132.00
2018-07-21T04:36:59.820Z,132.00
2018-07-21T04:37:59.459Z,152.00
2018-07-21T04:38:59.790Z,136.00
2018-07-21T04:39:59.781Z,152.00
2018-07-21T04:40:59.773Z,144.00
2018-07-21T04:41:59.434Z,140.00
2018-07-21T04:42:59.405Z,160.00
2018-07-21T04:43:59.428Z,112.00
2018-07-21T04:44:59.762Z,108.00
2018-07-21T04:45:59.390Z,100.00
2018-07-21T04:46:59.401Z,88.00
2018-07-21T04:47:59.719Z,80.00
2018-07-21T04:48:59.375Z,72.00
2018-07-21T04:49:59.728Z,64.00
2018-07-21T04:50:59.737Z,60.00
2018-07-21T04:51:59.698Z,56.00
2018-07-21T04:52:59.360Z,60.00
2018-07-21T04:53:59.445Z,64.00
2018-07-21T04:54:59.690Z,64.00
2018-07-21T04:55:59.682Z,56.00
2018-07-21T04:56:59.686Z,44.00
2018-07-21T04:57:59.678Z,40.00
2018-07-21T04:58:59.656Z,36.00
2018-07-21T04:59:59.306Z,40.00
2018-07-21T05:00:59.701Z,40.00
2018-07-21T05:01:59.286Z,36.00
2018-07-21T05:02:59.631Z,32.00
2018-07-21T05:03:59.271Z,32.00
2018-07-21T05:04:59.622Z,28.00
2018-07-21T05:05:59.627Z,32.00
2018-07-21T05:06:59.621Z,36.00
2018-07-21T05:07:59.614Z,36.00
2018-07-21T05:08:59.255Z,44.00
2018-07-21T05:09:59.233Z,48.00
2018-07-21T05:10:59.245Z,52.00
2018-07-21T05:11:59.229Z,60.00
2018-07-21T05:12:59.583Z,60.00
2018-07-21T05:13:59.558Z,76.00
2018-07-21T05:14:59.565Z,80.00
2018-07-21T05:15:59.206Z,84.00
2018-07-21T05:16:59.563Z,92.00
2018-07-21T05:17:59.542Z,96.00
2018-07-21T05:18:59.537Z,84.00
2018-07-21T05:19:59.539Z,92.00
2018-07-21T05:20:59.529Z,100.00
2018-07-21T05:21:59.497Z,128.00
2018-07-21T05:22:59.161Z,108.00
2018-07-21T05:23:59.489Z,112.00
2018-07-21T05:24:59.486Z,112.00
2018-07-21T05:25:59.138Z,108.00
2018-07-21T05:26:59.487Z,100.00
2018-07-21T05:27:59.116Z,104.00
2018-07-21T05:28:59.456Z,104.00
2018-07-21T05:29:59.468Z,100.00
2018-07-21T05:30:59.461Z,92.00
2018-07-21T05:31:59.100Z,88.00
2018-07-21T05:32:59.094Z,76.00
2018-07-21T05:33:59.444Z,68.00
2018-07-21T05:34:59.429Z,64.00
2018-07-21T05:35:59.073Z,68.00
2018-07-21T05:36:59.050Z,72.00
2018-07-21T05:37:59.413Z,72.00
2018-07-21T05:38:59.389Z,72.00
2018-07-21T05:39:59.017Z,68.00
2018-07-21T05:40:59.387Z,68.00
2018-07-21T05:41:59.376Z,64.00
2018-07-21T05:42:59.048Z,56.00
2018-07-21T05:43:59.017Z,56.00
2018-07-21T05:44:59.042Z,56.00
2018-07-21T05:45:59.340Z,52.00
2018-07-21T05:46:59.349Z,44.00
2018-07-21T05:47:59.325Z,44.00
2018-07-21T05:48:59.330Z,44.00
2018-07-21T05:49:59.302Z,40.00
2018-07-21T05:50:59.331Z,40.00
2018-07-21T05:51:58.945Z,40.00
2018-07-21T05:52:59.295Z,36.00
2018-07-21T05:53:58.928Z,40.00
2018-07-21T05:54:59.299Z,44.00
2018-07-21T05:55:59.282Z,48.00
2018-07-21T05:56:58.935Z,56.00
2018-07-21T05:57:59.252Z,68.00
2018-07-21T05:58:59.262Z,76.00
2018-07-21T05:59:59.248Z,84.00
2018-07-21T06:00:58.894Z,88.00
2018-07-21T06:01:59.252Z,88.00
2018-07-21T06:02:59.258Z,88.00
2018-07-21T06:03:58.866Z,88.00
2018-07-21T06:04:59.211Z,84.00
2018-07-21T06:05:58.875Z,80.00
2018-07-21T06:06:59.224Z,76.00
2018-07-21T06:07:59.210Z,72.00
2018-07-21T06:08:58.860Z,72.00
2018-07-21T06:09:59.196Z,72.00
2018-07-21T06:10:58.837Z,76.00
2018-07-21T06:11:59.176Z,72.00
2018-07-21T06:12:59.156Z,76.00
2018-07-21T06:13:59.152Z,80.00
2018-07-21T06:14:59.151Z,88.00
2018-07-21T06:15:58.780Z,92.00
2018-07-21T06:16:58.806Z,96.00
2018-07-21T06:17:58.812Z,104.00
2018-07-21T06:18:59.118Z,112.00
2018-07-21T06:19:59.115Z,112.00
2018-07-21T06:20:59.106Z,116.00
2018-07-21T06:21:59.118Z,116.00
2018-07-21T06:22:59.109Z,112.00
2018-07-21T06:23:59.085Z,104.00
2018-07-21T06:24:58.737Z,100.00
2018-07-21T06:25:59.072Z,104.00
2018-07-21T06:26:59.084Z,100.00
2018-07-21T06:27:58.739Z,100.00
2018-07-21T06:28:58.706Z,96.00
2018-07-21T06:29:59.056Z,84.00
2018-07-21T06:30:58.676Z,84.00
2018-07-21T06:31:58.693Z,92.00
2018-07-21T06:32:58.746Z,100.00
2018-07-21T06:33:58.676Z,112.00
2018-07-21T06:34:59.028Z,108.00
2018-07-21T06:35:59.000Z,100.00
2018-07-21T06:36:59.018Z,120.00
2018-07-21T06:37:58.649Z,124.00
2018-07-21T06:38:58.993Z,112.00
2018-07-21T06:39:58.650Z,108.00
2018-07-21T06:40:58.631Z,112.00
2018-07-21T06:41:58.987Z,108.00
2018-07-21T06:42:58.612Z,124.00
2018-07-21T06:43:58.685Z,116.00
2018-07-21T06:44:58.962Z,112.00
2018-07-21T06:45:58.940Z,116.00
2018-07-21T06:46:58.956Z,112.00
2018-07-21T06:47:58.593Z,100.00
2018-07-21T06:48:58.919Z,84.00
2018-07-21T06:49:58.933Z,76.00
2018-07-21T06:50:58.901Z,64.00
2018-07-21T06:51:58.900Z,64.00
2018-07-21T06:52:58.567Z,68.00
2018-07-21T06:53:58.911Z,72.00
2018-07-21T06:54:58.897Z,80.00
2018-07-21T06:55:58.870Z,76.00
2018-07-21T06:56:58.520Z,72.00
2018-07-21T06:57:58.881Z,76.00
2018-07-21T06:58:58.507Z,72.00
2018-07-21T06:59:58.851Z,72.00
2018-07-21T07:00:58.862Z,76.00
2018-07-21T07:01:58.849Z,80.00
2018-07-21T07:02:58.823Z,88.00
2018-07-21T07:03:58.815Z,96.00
2018-07-21T07:04:58.455Z,108.00
2018-07-21T07:05:58.804Z,108.00
2018-07-21T07:06:58.801Z,108.00
2018-07-21T07:07:58.814Z,100.00
2018-07-21T07:08:58.808Z,88.00
2018-07-21T07:09:58.447Z,80.00
2018-07-21T07:10:58.772Z,68.00
2018-07-21T07:11:58.782Z,56.00
2018-07-21T07:12:58.759Z,48.00
2018-07-21T07:13:58.778Z,40.00
2018-07-21T07:14:58.412Z,36.00
2018-07-21T07:15:58.744Z,32.00
2018-07-21T07:16:58.381Z,24.00
2018-07-21T07:17:58.743Z,24.00
2018-07-21T07:18:58.728Z,16.00
2018-07-21T07:19:58.381Z,12.00
2018-07-21T07:20:58.735Z,16.00
2018-07-21T07:21:58.719Z,20.00
2018-07-21T07:22:58.343Z,24.00
2018-07-21T07:23:58.685Z,36.00
2018-07-21T07:24:58.679Z,48.00
2018-07-21T07:25:58.696Z,60.00
2018-07-21T07:26:58.682Z,68.00
2018-07-21T07:27:58.680Z,64.00
2018-07-21T07:28:58.708Z,48.00
2018-07-21T07:29:58.648Z,36.00
2018-07-21T07:30:58.316Z,32.00
2018-07-21T07:31:58.304Z,28.00
2018-07-21T07:32:58.644Z,32.00
2018-07-21T07:33:58.630Z,24.00
2018-07-21T07:34:58.629Z,20.00
2018-07-21T07:35:58.606Z,20.00
2018-07-21T07:36:58.619Z,24.00
2018-07-21T07:37:58.599Z,24.00
2018-07-21T07:38:58.592Z,40.00
2018-07-21T07:39:58.591Z,40.00
2018-07-21T07:40:58.575Z,44.00
2018-07-21T07:41:58.569Z,48.00
2018-07-21T07:42:58.556Z,52.00
2018-07-21T07:43:58.555Z,48.00
2018-07-21T07:44:58.561Z,48.00
2018-07-21T07:45:58.184Z,40.00
2018-07-21T07:46:58.551Z,36.00
2018-07-21T07:47:58.183Z,28.00
2018-07-21T07:48:58.183Z,28.00
2018-07-21T07:49:58.535Z,28.00
2018-07-21T07:50:58.505Z,24.00
2018-07-21T07:51:58.507Z,24.00
2018-07-21T07:52:58.523Z,20.00
2018-07-21T07:53:58.486Z,20.00
2018-07-21T07:54:58.124Z,28.00
2018-07-21T07:55:58.476Z,28.00
2018-07-21T07:56:58.474Z,24.00
2018-07-21T07:57:58.483Z,20.00
2018-07-21T07:58:58.096Z,20.00
2018-07-21T07:59:58.445Z,20.00
2018-07-21T08:00:58.459Z,20.00
2018-07-21T08:01:58.454Z,20.00
2018-07-21T08:02:58.427Z,24.00
2018-07-21T08:03:58.084Z,24.00
2018-07-21T08:04:58.079Z,28.00
2018-07-21T08:05:58.408Z,28.00
2018-07-21T08:06:58.075Z,32.00
2018-07-21T08:07:58.415Z,36.00
2018-07-21T08:08:58.394Z,36.00
2018-07-21T08:09:58.400Z,36.00
2018-07-21T08:10:58.423Z,36.00
2018-07-21T08:11:58.015Z,40.00
2018-07-21T08:12:58.360Z,44.00
2018-07-21T08:13:58.369Z,48.00
2018-07-21T08:14:58.346Z,52.00
2018-07-21T08:15:58.361Z,60.00
2018-07-21T08:16:58.004Z,64.00
2018-07-21T08:17:58.331Z,64.00
2018-07-21T08:18:57.984Z,68.00
2018-07-21T08:19:58.307Z,68.00
2018-07-21T08:20:58.324Z,72.00
2018-07-21T08:21:58.317Z,72.00
2018-07-21T08:22:58.289Z,72.00
2018-07-21T08:23:57.941Z,76.00
2018-07-21T08:24:58.280Z,76.00
2018-07-21T08:25:58.293Z,76.00
2018-07-21T08:26:58.285Z,76.00
2018-07-21T08:27:57.912Z,80.00
2018-07-21T08:28:58.318Z,80.00
2018-07-21T08:29:58.263Z,80.00
2018-07-21T08:30:58.258Z,80.00
2018-07-21T08:31:58.231Z,80.00
2018-07-21T08:32:58.229Z,84.00
2018-07-21T08:33:57.861Z,80.00
2018-07-21T08:34:58.210Z,88.00
2018-07-21T08:35:58.219Z,88.00
2018-07-21T08:36:58.200Z,88.00
2018-07-21T08:37:58.190Z,88.00
2018-07-21T08:38:58.189Z,88.00
2018-07-21T08:39:57.825Z,88.00
2018-07-21T08:40:58.171Z,88.00
2018-07-21T08:41:58.177Z,88.00
2018-07-21T08:42:58.162Z,84.00
2018-07-21T08:43:58.152Z,80.00
2018-07-21T08:44:58.160Z,76.00
2018-07-21T08:45:58.163Z,72.00
2018-07-21T08:46:58.139Z,72.00
2018-07-21T08:47:57.795Z,68.00
2018-07-21T08:48:58.108Z,68.00
2018-07-21T08:49:58.112Z,68.00
2018-07-21T08:50:58.113Z,64.00
2018-07-21T08:51:57.761Z,68.00
2018-07-21T08:52:57.735Z,64.00
2018-07-21T08:53:58.097Z,60.00
2018-07-21T08:54:58.096Z,68.00
2018-07-21T08:55:58.113Z,64.00
2018-07-21T08:56:57.740Z,60.00
2018-07-21T08:57:58.075Z,52.00
2018-07-21T08:58:57.695Z,44.00
2018-07-21T08:59:58.070Z,40.00
2018-07-21T09:00:58.054Z,40.00
2018-07-21T09:01:58.048Z,40.00
2018-07-21T09:02:58.031Z,40.00
2018-07-21T09:03:58.037Z,36.00
2018-07-21T09:04:57.686Z,36.00
2018-07-21T09:05:57.680Z,40.00
2018-07-21T09:06:58.009Z,44.00
2018-07-21T09:07:57.658Z,48.00
2018-07-21T09:08:57.984Z,52.00
2018-07-21T09:09:57.643Z,52.00
2018-07-21T09:10:57.994Z,60.00
2018-07-21T09:11:57.972Z,68.00
2018-07-21T09:12:57.956Z,72.00
2018-07-21T09:13:57.602Z,80.00
2018-07-21T09:14:57.941Z,76.00
2018-07-21T09:15:57.955Z,68.00
2018-07-21T09:16:57.949Z,56.00
2018-07-21T09:17:57.579Z,52.00
2018-07-21T09:18:57.919Z,40.00
2018-07-21T09:19:57.913Z,36.00
2018-07-21T09:20:57.926Z,36.00
2018-07-21T09:21:57.925Z,36.00
2018-07-21T09:22:57.541Z,40.00
2018-07-21T09:23:57.887Z,40.00
2018-07-21T09:24:57.889Z,40.00
2018-07-21T09:25:57.894Z,40.00
2018-07-21T09:26:57.880Z,40.00
2018-07-21T09:27:57.858Z,40.00
2018-07-21T09:28:57.522Z,40.00
2018-07-21T09:29:57.870Z,44.00
2018-07-21T09:30:57.839Z,40.00
2018-07-21T09:31:57.833Z,44.00
2018-07-21T09:32:57.822Z,44.00
2018-07-21T09:33:57.844Z,44.00
2018-07-21T09:34:57.804Z,44.00
2018-07-21T09:35:57.479Z,44.00
2018-07-21T09:36:57.801Z,44.00
2018-07-21T09:37:57.805Z,44.00
2018-07-21T09:38:57.795Z,44.00
2018-07-21T09:39:57.779Z,48.00
2018-07-21T09:40:57.767Z,52.00
2018-07-21T09:41:57.437Z,52.00
2018-07-21T09:42:57.758Z,52.00
2018-07-21T09:43:57.775Z,52.00
2018-07-21T09:44:57.760Z,56.00
2018-07-21T09:45:57.764Z,56.00
2018-07-21T09:46:57.377Z,44.00
2018-07-21T09:47:57.394Z,48.00
2018-07-21T09:48:57.733Z,44.00
2018-07-21T09:49:57.353Z,40.00
2018-07-21T09:50:57.360Z,44.00
2018-07-21T09:51:57.714Z,52.00
2018-07-21T09:52:57.706Z,52.00
2018-07-21T09:53:57.347Z,52.00
2018-07-21T09:54:57.691Z,52.00
2018-07-21T09:55:57.713Z,52.00
2018-07-21T09:56:57.681Z,48.00
2018-07-21T09:57:57.648Z,48.00
2018-07-21T09:58:57.882Z,52.00
2018-07-21T09:59:57.659Z,56.00
2018-07-21T10:00:57.633Z,48.00
2018-07-21T10:01:57.646Z,44.00
2018-07-21T10:02:57.283Z,44.00
2018-07-21T10:03:57.633Z,40.00
2018-07-21T10:04:57.609Z,44.00
2018-07-21T10:05:57.251Z,48.00
2018-07-21T10:06:57.617Z,52.00
2018-07-21T10:07:57.608Z,52.00
2018-07-21T10:08:57.249Z,52.00
2018-07-21T10:09:57.574Z,48.00
2018-07-21T10:10:57.572Z,48.00
2018-07-21T10:11:57.232Z,48.00
2018-07-21T10:12:57.583Z,44.00
2018-07-21T10:13:57.567Z,40.00
2018-07-21T10:14:57.539Z,44.00
2018-07-21T10:15:57.537Z,48.00
2018-07-21T10:16:57.546Z,44.00
2018-07-21T10:17:57.543Z,48.00
2018-07-21T10:18:57.534Z,48.00
2018-07-21T10:19:57.528Z,44.00
2018-07-21T10:20:57.520Z,40.00
2018-07-21T10:21:57.169Z,40.00
2018-07-21T10:22:57.140Z,36.00
2018-07-21T10:23:57.115Z,44.00
2018-07-21T10:24:57.122Z,44.00
2018-07-21T10:25:57.488Z,40.00
2018-07-21T10:26:57.464Z,48.00
2018-07-21T10:27:57.456Z,48.00
2018-07-21T10:28:57.092Z,48.00
2018-07-21T10:29:57.460Z,48.00
2018-07-21T10:30:57.456Z,44.00
2018-07-21T10:31:57.433Z,44.00
2018-07-21T10:32:57.422Z,40.00
2018-07-21T10:33:57.415Z,40.00
2018-07-21T10:34:57.404Z,36.00
2018-07-21T10:35:57.425Z,36.00
2018-07-21T10:36:57.414Z,36.00
2018-07-21T10:37:57.406Z,36.00
2018-07-21T10:38:57.391Z,36.00
2018-07-21T10:39:57.373Z,36.00
2018-07-21T10:40:57.385Z,36.00
2018-07-21T10:41:57.379Z,36.00
2018-07-21T10:42:57.351Z,36.00
2018-07-21T10:43:57.012Z,32.00
2018-07-21T10:44:57.360Z,28.00
2018-07-21T10:45:57.352Z,32.00
2018-07-21T10:46:57.345Z,28.00
2018-07-21T10:47:57.389Z,32.00
2018-07-21T10:48:57.329Z,28.00
2018-07-21T10:49:56.954Z,28.00
2018-07-21T10:50:56.947Z,28.00
2018-07-21T10:51:57.292Z,28.00
2018-07-21T10:52:57.285Z,28.00
2018-07-21T10:53:57.290Z,28.00
2018-07-21T10:54:56.946Z,24.00
2018-07-21T10:55:57.256Z,24.00
2018-07-21T10:56:57.256Z,24.00
2018-07-21T10:57:56.923Z,24.00
2018-07-21T10:58:57.245Z,24.00
2018-07-21T10:59:57.263Z,24.00
2018-07-21T11:00:56.901Z,24.00
2018-07-21T11:01:57.243Z,24.00
2018-07-21T11:02:57.217Z,24.00
2018-07-21T11:03:57.233Z,24.00
2018-07-21T11:04:57.207Z,24.00
2018-07-21T11:05:56.852Z,20.00
2018-07-21T11:06:56.832Z,20.00
2018-07-21T11:07:57.249Z,24.00
2018-07-21T11:08:56.818Z,24.00
2018-07-21T11:09:56.837Z,20.00
2018-07-21T11:10:57.182Z,24.00
2018-07-21T11:11:57.167Z,24.00
2018-07-21T11:12:57.168Z,20.00
2018-07-21T11:13:57.145Z,20.00
2018-07-21T11:14:57.133Z,20.00
2018-07-21T11:15:57.133Z,20.00
2018-07-21T11:16:57.123Z,16.00
2018-07-21T11:17:57.136Z,20.00
2018-07-21T11:18:57.112Z,20.00
2018-07-21T11:19:56.773Z,16.00
2018-07-21T11:20:57.095Z,16.00
2018-07-21T11:21:57.102Z,16.00
2018-07-21T11:22:57.086Z,16.00
2018-07-21T11:23:57.087Z,20.00
2018-07-21T11:24:56.729Z,20.00
2018-07-21T11:25:57.080Z,16.00
2018-07-21T11:26:57.078Z,16.00
2018-07-21T11:27:57.047Z,20.00
2018-07-21T11:28:56.709Z,20.00
2018-07-21T11:29:56.688Z,20.00
2018-07-21T11:30:56.698Z,16.00
2018-07-21T11:31:57.044Z,20.00
2018-07-21T11:32:57.018Z,20.00
2018-07-21T11:33:57.028Z,20.00
2018-07-21T11:34:56.672Z,16.00
2018-07-21T11:35:57.266Z,16.00
2018-07-21T11:36:57.023Z,20.00
2018-07-21T11:37:56.625Z,20.00
2018-07-21T11:38:57.001Z,20.00
2018-07-21T11:39:56.984Z,20.00
2018-07-21T11:40:56.629Z,20.00
2018-07-21T11:41:56.974Z,20.00
2018-07-21T11:42:56.947Z,20.00
2018-07-21T11:43:56.944Z,16.00
2018-07-21T11:44:56.952Z,16.00
2018-07-21T11:45:56.595Z,16.00
2018-07-21T11:46:56.597Z,16.00
2018-07-21T11:47:56.921Z,12.00
2018-07-21T11:48:56.549Z,16.00
2018-07-21T11:49:56.900Z,16.00
2018-07-21T11:50:56.894Z,12.00
2018-07-21T11:51:56.887Z,12.00
2018-07-21T11:52:56.530Z,16.00
2018-07-21T11:53:56.892Z,12.00
2018-07-21T11:54:56.888Z,12.00
2018-07-21T11:55:56.505Z,12.00
2018-07-21T11:56:56.872Z,12.00
2018-07-21T11:57:56.868Z,12.00
2018-07-21T11:58:56.518Z,12.00
2018-07-21T11:59:56.835Z,8.00
2018-07-21T12:00:56.502Z,12.00
2018-07-21T12:01:56.825Z,12.00
2018-07-21T12:02:56.838Z,8.00
2018-07-21T12:03:56.474Z,12.00
2018-07-21T12:04:56.807Z,12.00
2018-07-21T12:05:56.796Z,12.00
2018-07-21T12:06:56.452Z,8.00
2018-07-21T12:07:56.783Z,8.00
2018-07-21T12:08:56.772Z,8.00
2018-07-21T12:09:56.782Z,12.00
2018-07-21T12:10:56.757Z,12.00
2018-07-21T12:11:56.423Z,8.00
2018-07-21T12:12:56.756Z,8.00
2018-07-21T12:13:56.738Z,8.00
2018-07-21T12:14:56.409Z,8.00
2018-07-21T12:15:56.724Z,8.00
2018-07-21T12:16:56.732Z,8.00
2018-07-21T12:17:56.731Z,8.00
2018-07-21T12:18:56.714Z,8.00
2018-07-21T12:19:56.697Z,8.00
2018-07-21T12:20:56.714Z,8.00
2018-07-21T12:21:56.697Z,8.00
2018-07-21T12:22:56.678Z,8.00
2018-07-21T12:23:56.323Z,4.00
2018-07-21T12:24:56.327Z,4.00
2018-07-21T12:25:56.326Z,8.00
2018-07-21T12:26:56.297Z,8.00
2018-07-21T12:27:56.636Z,4.00
2018-07-21T12:28:56.641Z,4.00
2018-07-21T12:29:56.275Z,4.00
2018-07-21T12:30:56.293Z,4.00
2018-07-21T12:31:56.609Z,4.00
2018-07-21T12:32:56.626Z,4.00
2018-07-21T12:33:56.597Z,0.00
2018-07-21T12:34:56.594Z,4.00
2018-07-21T12:35:56.255Z,4.00
2018-07-21T12:36:56.254Z,0.00
2018-07-21T12:37:56.578Z,0.00
2018-07-21T12:38:56.596Z,0.00
2018-07-21T12:39:56.583Z,4.00
2018-07-21T12:40:56.225Z,4.00
2018-07-21T12:41:56.204Z,4.00
2018-07-21T12:42:56.194Z,4.00
2018-07-21T12:43:56.536Z,4.00
2018-07-21T12:44:56.564Z,0.00
2018-07-21T12:45:56.538Z,0.00
2018-07-21T12:46:56.515Z,0.00
2018-07-21T12:47:56.510Z,0.00